createdAt,value
2023-01-22T00:02:09.955Z,37.72
2023-01-22T00:04:37.341Z,38.65
2023-01-22T00:07:03.844Z,36.22
2023-01-22T00:09:30.874Z,36.97
2023-01-22T00:11:57.847Z,39.53
2023-01-22T00:14:24.413Z,36.90
2023-01-22T00:16:50.903Z,38.30
2023-01-22T00:19:17.300Z,35.78
2023-01-22T00:21:43.664Z,37.40
2023-01-22T00:24:10.107Z,38.85
2023-01-22T00:26:37.033Z,37.53
2023-01-22T00:29:04.100Z,37.08
2023-01-22T00:31:30.638Z,36.72
2023-01-22T00:33:57.228Z,36.10
2023-01-22T00:36:23.616Z,34.08
2023-01-22T00:38:50.724Z,37.08
2023-01-22T00:41:19.179Z,34.03
2023-01-22T00:43:47.189Z,37.63
2023-01-22T00:46:18.074Z,36.58
2023-01-22T00:48:49.531Z,36.25
2023-01-22T00:51:16.599Z,32.25
2023-01-22T00:53:46.413Z,33.30
2023-01-22T00:56:14.423Z,34.88
2023-01-22T00:58:41.696Z,32.15
2023-01-22T01:01:08.286Z,34.42
2023-01-22T01:03:39.827Z,35.50
2023-01-22T01:06:15.456Z,33.72
2023-01-22T01:08:43.520Z,36.25
2023-01-22T01:11:13.861Z,34.95
2023-01-22T01:13:42.767Z,35.50
2023-01-22T01:16:18.300Z,39.15
2023-01-22T01:18:45.222Z,36.78
2023-01-22T01:21:12.225Z,35.13
2023-01-22T01:23:39.571Z,34.15
2023-01-22T01:26:09.130Z,31.65
2023-01-22T01:28:37.388Z,33.50
2023-01-22T01:31:08.585Z,32.78
2023-01-22T01:33:35.333Z,31.73
2023-01-22T01:36:04.291Z,32.65
2023-01-22T01:38:31.741Z,30.20
2023-01-22T01:40:59.763Z,28.52
2023-01-22T01:43:26.224Z,28.77
2023-01-22T01:45:52.641Z,26.77
2023-01-22T01:48:28.899Z,28.52
2023-01-22T01:51:02.652Z,27.55
2023-01-22T01:53:29.488Z,23.35
2023-01-22T01:55:57.996Z,27.02
2023-01-22T01:58:28.645Z,24.20
2023-01-22T02:01:00.920Z,23.83
2023-01-22T02:03:29.556Z,25.02
2023-01-22T02:05:56.793Z,25.20
2023-01-22T02:08:23.867Z,24.33
2023-01-22T02:10:54.125Z,25.25
2023-01-22T02:13:25.611Z,25.17
2023-01-22T02:15:52.174Z,28.63
2023-01-22T02:18:18.589Z,24.58
2023-01-22T02:20:53.370Z,25.05
2023-01-22T02:23:19.796Z,25.67
2023-01-22T02:25:49.276Z,26.70
2023-01-22T02:28:15.935Z,24.65
2023-01-22T02:30:43.109Z,25.88
2023-01-22T02:33:09.828Z,26.00
2023-01-22T02:35:38.553Z,24.08
2023-01-22T02:38:05.361Z,25.05
2023-01-22T02:40:31.776Z,25.35
2023-01-22T02:42:58.120Z,27.08
2023-01-22T02:45:24.612Z,24.75
2023-01-22T02:47:51.090Z,26.83
2023-01-22T02:50:18.388Z,26.13
2023-01-22T02:52:44.938Z,25.33
2023-01-22T02:55:11.316Z,25.27
2023-01-22T02:57:37.731Z,25.65
2023-01-22T03:00:05.109Z,27.65
2023-01-22T03:02:31.550Z,27.30
2023-01-22T03:05:03.293Z,26.33
2023-01-22T03:07:42.277Z,23.95
2023-01-22T03:10:18.670Z,27.25
2023-01-22T03:13:05.556Z,25.15
2023-01-22T03:15:51.388Z,26.85
2023-01-22T03:18:36.040Z,25.48
2023-01-22T03:21:20.590Z,25.52
2023-01-22T03:23:55.846Z,25.77
2023-01-22T03:26:23.726Z,24.40
2023-01-22T03:28:53.290Z,26.70
2023-01-22T03:31:19.919Z,24.95
2023-01-22T03:33:46.646Z,28.38
2023-01-22T03:36:15.435Z,27.58
2023-01-22T03:38:42.439Z,28.20
2023-01-22T03:41:12.945Z,26.77
2023-01-22T03:43:39.676Z,25.52
2023-01-22T03:46:08.023Z,26.30
2023-01-22T03:48:34.433Z,25.90
2023-01-22T03:51:08.993Z,25.33
2023-01-22T03:53:36.182Z,24.63
2023-01-22T03:56:05.644Z,26.17
2023-01-22T03:58:32.437Z,23.52
2023-01-22T04:01:06.842Z,23.48
2023-01-22T04:03:34.064Z,23.63
2023-01-22T04:06:00.881Z,23.73
2023-01-22T04:08:29.432Z,22.83
2023-01-22T04:10:56.928Z,23.77
2023-01-22T04:13:24.484Z,25.02
2023-01-22T04:15:51.078Z,23.45
2023-01-22T04:18:17.610Z,23.42
2023-01-22T04:20:44.140Z,25.38
2023-01-22T04:23:10.557Z,23.95
2023-01-22T04:25:37.331Z,23.50
2023-01-22T04:28:04.179Z,23.20
2023-01-22T04:30:30.888Z,22.17
2023-01-22T04:32:57.396Z,24.08
2023-01-22T04:35:26.232Z,21.92
2023-01-22T04:37:52.618Z,23.77
2023-01-22T04:40:20.587Z,23.48
2023-01-22T04:42:47.496Z,22.92
2023-01-22T04:45:16.761Z,23.25
2023-01-22T04:47:44.680Z,25.55
2023-01-22T04:50:22.479Z,24.50
2023-01-22T04:52:53.071Z,23.52
2023-01-22T04:55:19.796Z,22.38
2023-01-22T04:57:46.784Z,22.55
2023-01-22T05:00:13.533Z,22.90
2023-01-22T05:02:42.301Z,23.27
2023-01-22T05:05:09.525Z,23.05
2023-01-22T05:07:36.355Z,22.55
2023-01-22T05:10:02.838Z,23.65
2023-01-22T05:12:29.263Z,22.60
2023-01-22T05:14:55.686Z,23.13
2023-01-22T05:17:22.147Z,22.50
2023-01-22T05:19:48.584Z,22.95
2023-01-22T05:22:15.023Z,24.20
2023-01-22T05:24:41.462Z,22.35
2023-01-22T05:27:07.891Z,23.73
2023-01-22T05:29:34.233Z,24.63
2023-01-22T05:32:00.752Z,22.77
2023-01-22T05:34:27.188Z,22.45
2023-01-22T05:36:53.659Z,24.50
2023-01-22T05:39:21.893Z,20.98
2023-01-22T05:41:49.453Z,21.60
2023-01-22T05:44:15.803Z,21.80
2023-01-22T05:46:42.443Z,21.25
2023-01-22T05:49:08.930Z,21.10
2023-01-22T05:51:36.142Z,19.95
2023-01-22T05:54:02.569Z,21.35
2023-01-22T05:56:30.208Z,20.83
2023-01-22T05:58:56.621Z,19.35
2023-01-22T06:01:23.257Z,20.75
2023-01-22T06:03:49.678Z,20.23
2023-01-22T06:06:16.129Z,19.73
2023-01-22T06:08:42.491Z,19.60
2023-01-22T06:11:12.888Z,20.25
2023-01-22T06:13:40.249Z,20.13
2023-01-22T06:16:07.563Z,20.58
2023-01-22T06:18:34.420Z,20.13
2023-01-22T06:21:02.646Z,19.38
2023-01-22T06:23:29.675Z,18.83
2023-01-22T06:25:57.945Z,20.52
2023-01-22T06:28:25.061Z,19.83
2023-01-22T06:30:53.194Z,19.38
2023-01-22T06:33:19.735Z,19.48
2023-01-22T06:35:46.184Z,18.52
2023-01-22T06:38:12.544Z,19.02
2023-01-22T06:40:38.905Z,20.85
2023-01-22T06:43:06.618Z,19.23
2023-01-22T06:45:33.011Z,19.77
2023-01-22T06:47:59.398Z,20.25
2023-01-22T06:50:25.855Z,20.30
2023-01-22T06:52:52.342Z,19.27
2023-01-22T06:55:18.768Z,18.35
2023-01-22T06:57:45.128Z,18.98
2023-01-22T07:00:11.839Z,19.85
2023-01-22T07:02:38.221Z,18.88
2023-01-22T07:05:04.808Z,19.65
2023-01-22T07:07:31.183Z,19.73
2023-01-22T07:09:57.530Z,19.60
2023-01-22T07:12:24.185Z,19.38
2023-01-22T07:14:50.560Z,19.50
2023-01-22T07:17:16.936Z,17.98
2023-01-22T07:19:43.337Z,18.58
2023-01-22T07:22:09.814Z,18.85
2023-01-22T07:24:36.257Z,19.58
2023-01-22T07:27:02.970Z,18.10
2023-01-22T07:29:29.449Z,19.30
2023-01-22T07:31:55.918Z,19.25
2023-01-22T07:34:22.683Z,19.45
2023-01-22T07:36:49.322Z,18.27
2023-01-22T07:39:15.744Z,18.67
2023-01-22T07:41:42.108Z,19.33
2023-01-22T07:44:08.656Z,19.55
2023-01-22T07:46:35.740Z,18.10
2023-01-22T07:49:02.115Z,19.70
2023-01-22T07:51:28.452Z,18.35
2023-01-22T07:53:54.996Z,19.40
2023-01-22T07:56:21.631Z,18.73
2023-01-22T07:58:48.178Z,18.92
2023-01-22T08:01:15.658Z,19.20
2023-01-22T08:03:42.250Z,16.55
2023-01-22T08:06:15.442Z,17.55
2023-01-22T08:08:42.639Z,18.27
2023-01-22T08:11:09.293Z,18.15
2023-01-22T08:13:35.751Z,17.80
2023-01-22T08:16:02.238Z,18.60
2023-01-22T08:18:28.910Z,17.65
2023-01-22T08:20:55.399Z,18.13
2023-01-22T08:23:22.138Z,17.85
2023-01-22T08:25:48.618Z,17.67
2023-01-22T08:28:14.995Z,18.20
2023-01-22T08:30:46.365Z,18.08
2023-01-22T08:33:15.549Z,17.77
2023-01-22T08:35:41.942Z,20.13
2023-01-22T08:38:08.400Z,18.92
2023-01-22T08:40:37.736Z,19.92
2023-01-22T08:43:04.267Z,19.23
2023-01-22T08:45:30.634Z,18.98
2023-01-22T08:47:59.293Z,19.27
2023-01-22T08:50:27.700Z,18.48
2023-01-22T08:52:57.299Z,19.02
2023-01-22T08:55:24.556Z,19.38
2023-01-22T08:57:55.388Z,19.42
2023-01-22T09:00:22.945Z,19.80
2023-01-22T09:02:49.541Z,20.05
2023-01-22T09:05:15.989Z,19.70
2023-01-22T09:07:42.445Z,19.02
2023-01-22T09:10:12.206Z,19.70
2023-01-22T09:12:39.900Z,19.85
2023-01-22T09:15:07.697Z,20.33
2023-01-22T09:17:34.057Z,18.98
2023-01-22T09:20:00.375Z,19.75
2023-01-22T09:22:26.696Z,19.20
2023-01-22T09:24:54.733Z,19.55
2023-01-22T09:27:21.373Z,19.08
2023-01-22T09:29:47.709Z,19.35
2023-01-22T09:32:14.157Z,18.95
2023-01-22T09:34:40.516Z,19.35
2023-01-22T09:37:07.904Z,18.67
2023-01-22T09:39:34.219Z,18.98
2023-01-22T09:42:03.947Z,18.48
2023-01-22T09:44:40.626Z,18.88
2023-01-22T09:47:12.450Z,18.52
2023-01-22T09:49:45.650Z,18.25
2023-01-22T09:52:12.194Z,19.98
2023-01-22T09:54:38.570Z,17.77
2023-01-22T09:57:13.019Z,16.95
2023-01-22T10:03:42.846Z,17.10
2023-01-22T10:06:09.112Z,15.73
2023-01-22T10:08:59.530Z,17.35
2023-01-22T10:11:26.053Z,17.55
2023-01-22T10:13:58.469Z,17.75
2023-01-22T10:16:25.464Z,16.48
2023-01-22T10:18:51.716Z,17.48
2023-01-22T10:21:25.397Z,18.75
2023-01-22T10:23:55.903Z,18.38
2023-01-22T10:26:27.531Z,17.85
2023-01-22T10:28:59.130Z,17.23
2023-01-22T10:31:31.103Z,18.63
2023-01-22T10:34:03.992Z,18.02
2023-01-22T10:36:31.729Z,19.05
2023-01-22T10:39:10.936Z,17.52
2023-01-22T10:41:37.718Z,17.50
2023-01-22T10:44:17.539Z,19.08
2023-01-22T10:46:46.315Z,18.27
2023-01-22T10:49:18.786Z,17.80
2023-01-22T10:52:26.869Z,18.25
2023-01-22T10:54:59.512Z,17.25
2023-01-22T10:57:33.544Z,18.35
2023-01-22T11:00:18.572Z,18.58
2023-01-22T11:02:47.752Z,17.65
2023-01-22T11:05:32.618Z,18.77
2023-01-22T11:08:14.303Z,18.08
2023-01-22T11:10:48.976Z,18.83
2023-01-22T11:13:20.519Z,18.23
2023-01-22T11:16:12.247Z,17.73
2023-01-22T11:18:42.729Z,17.35
2023-01-22T11:21:33.877Z,17.40
2023-01-22T11:24:09.257Z,16.25
2023-01-22T11:26:50.944Z,16.17
2023-01-22T11:29:34.079Z,16.67
2023-01-22T11:32:37.300Z,16.58
2023-01-22T11:35:06.667Z,16.65
2023-01-22T11:37:48.737Z,17.13
2023-01-22T11:40:21.396Z,17.85
2023-01-22T11:43:25.411Z,17.52
2023-01-22T11:46:25.024Z,16.92
2023-01-22T11:49:22.207Z,16.05
2023-01-22T11:52:03.944Z,16.50
2023-01-22T11:54:49.377Z,17.90
2023-01-22T11:57:51.123Z,16.48
2023-01-22T12:00:32.885Z,17.63
2023-01-22T12:03:58.242Z,18.15
2023-01-22T12:06:45.295Z,17.60
2023-01-22T12:09:20.115Z,18.08
2023-01-22T12:12:05.776Z,18.55
2023-01-22T12:14:54.918Z,18.85
2023-01-22T12:17:32.864Z,19.50
2023-01-22T12:20:08.286Z,19.55
2023-01-22T12:22:44.143Z,19.40
2023-01-22T12:25:19.347Z,19.00
2023-01-22T12:28:00.034Z,18.58
2023-01-22T12:30:57.918Z,18.52
2023-01-22T12:33:28.632Z,18.75
2023-01-22T12:35:57.984Z,19.38
2023-01-22T12:38:39.644Z,19.55
2023-01-22T12:41:23.060Z,18.77
2023-01-22T12:43:56.476Z,18.93
2023-01-22T12:46:38.021Z,19.23
2023-01-22T12:49:16.342Z,19.83
2023-01-22T12:51:48.277Z,20.45
2023-01-22T12:54:36.422Z,19.98
2023-01-22T12:57:24.946Z,20.40
2023-01-22T12:59:52.464Z,20.10
2023-01-22T13:02:37.826Z,20.70
2023-01-22T13:05:38.202Z,21.30
2023-01-22T13:08:24.839Z,20.33
2023-01-22T13:11:26.544Z,21.58
2023-01-22T13:14:13.703Z,21.40
2023-01-22T13:16:41.571Z,21.45
2023-01-22T13:19:20.033Z,23.85
2023-01-22T13:21:47.904Z,21.92
2023-01-22T13:24:17.554Z,24.80
2023-01-22T13:27:00.245Z,28.58
2023-01-22T13:29:33.053Z,25.00
2023-01-22T13:32:05.752Z,24.88
2023-01-22T13:34:32.509Z,22.95
2023-01-22T13:36:59.186Z,24.60
2023-01-22T13:39:29.932Z,22.30
2023-01-22T13:42:00.301Z,24.45
2023-01-22T13:44:37.589Z,24.73
2023-01-22T13:47:04.684Z,22.67
2023-01-22T13:49:34.750Z,24.42
2023-01-22T13:52:06.645Z,23.88
2023-01-22T13:54:56.897Z,26.27
2023-01-22T13:57:23.349Z,22.83
2023-01-22T14:00:01.054Z,24.25
2023-01-22T14:02:35.115Z,22.40
2023-01-22T14:07:34.580Z,21.05
2023-01-22T14:10:18.390Z,21.23
2023-01-22T14:12:44.955Z,21.27
2023-01-22T14:15:20.465Z,20.98
2023-01-22T14:17:49.020Z,23.95
2023-01-22T14:20:17.128Z,23.45
2023-01-22T14:22:43.742Z,23.70
2023-01-22T14:25:10.418Z,22.73
2023-01-22T14:27:43.733Z,23.92
2023-01-22T14:30:14.495Z,22.73
2023-01-22T14:32:42.378Z,23.13
2023-01-22T14:35:16.342Z,23.05
2023-01-22T14:37:42.831Z,22.90
2023-01-22T14:40:12.867Z,22.63
2023-01-22T14:42:39.756Z,24.98
2023-01-22T14:45:07.289Z,23.30
2023-01-22T14:47:34.683Z,23.13
2023-01-22T14:50:02.262Z,24.52
2023-01-22T14:52:28.697Z,24.95
2023-01-22T14:54:55.979Z,26.45
2023-01-22T14:57:23.592Z,24.88
2023-01-22T14:59:50.136Z,25.67
2023-01-22T15:02:17.035Z,26.67
2023-01-22T15:04:44.967Z,24.88
2023-01-22T15:07:12.187Z,24.48
2023-01-22T15:09:39.562Z,25.95
2023-01-22T15:12:07.118Z,26.40
2023-01-22T15:14:33.450Z,26.52
2023-01-22T15:17:03.275Z,26.23
2023-01-22T15:19:38.954Z,26.42
2023-01-22T15:22:07.199Z,24.80
2023-01-22T15:24:34.777Z,27.48
2023-01-22T15:27:01.162Z,28.58
2023-01-22T15:29:27.649Z,27.52
2023-01-22T15:31:54.124Z,29.08
2023-01-22T15:34:20.555Z,28.48
2023-01-22T15:36:46.880Z,27.95
2023-01-22T15:39:13.263Z,31.13
2023-01-22T15:41:40.014Z,30.63
2023-01-22T15:44:07.165Z,30.20
2023-01-22T15:46:36.838Z,29.67
2023-01-22T15:49:05.131Z,32.95
2023-01-22T15:51:32.054Z,35.45
2023-01-22T15:54:01.782Z,32.47
2023-01-22T15:56:30.722Z,32.38
2023-01-22T15:58:58.491Z,32.97
2023-01-22T16:01:26.359Z,33.60
2023-01-22T16:03:53.288Z,32.78
2023-01-22T16:06:25.222Z,32.55
2023-01-22T16:08:53.958Z,32.85
2023-01-22T16:11:21.480Z,34.95
2023-01-22T16:13:48.076Z,35.17
2023-01-22T16:16:20.808Z,35.13
2023-01-22T16:18:48.564Z,32.25
2023-01-22T16:21:17.354Z,33.13
2023-01-22T16:23:45.715Z,33.25
2023-01-22T16:26:18.801Z,32.58
2023-01-22T16:28:47.850Z,31.87
2023-01-22T16:31:17.472Z,32.70
2023-01-22T16:33:50.181Z,33.30
2023-01-22T16:36:18.606Z,31.13
2023-01-22T16:39:16.811Z,32.60
2023-01-22T16:41:43.349Z,32.28
2023-01-22T16:44:26.159Z,33.17
2023-01-22T16:47:07.634Z,35.53
2023-01-22T16:49:34.654Z,33.28
2023-01-22T16:52:20.854Z,35.33
2023-01-22T16:54:49.464Z,31.85
2023-01-22T16:57:16.523Z,32.45
2023-01-22T16:59:43.198Z,35.20
2023-01-22T17:02:15.488Z,36.60
2023-01-22T17:04:41.905Z,35.38
2023-01-22T17:07:13.572Z,35.85
2023-01-22T17:09:47.077Z,35.83
2023-01-22T17:12:13.571Z,36.35
2023-01-22T17:14:40.133Z,33.63
2023-01-22T17:17:07.906Z,36.72
2023-01-22T17:19:35.822Z,35.10
2023-01-22T17:22:07.957Z,35.30
2023-01-22T17:24:34.383Z,33.50
2023-01-22T17:27:02.570Z,35.30
2023-01-22T17:29:38.477Z,35.03
2023-01-22T17:32:05.682Z,33.72
2023-01-22T17:34:32.114Z,34.25
2023-01-22T17:36:58.510Z,34.38
2023-01-22T17:39:25.227Z,36.15
2023-01-22T17:41:51.719Z,34.72
2023-01-22T17:44:18.138Z,34.08
2023-01-22T17:46:44.469Z,36.05
2023-01-22T17:49:11.160Z,36.75
2023-01-22T17:51:37.981Z,35.50
2023-01-22T17:54:05.925Z,35.80
2023-01-22T17:56:35.153Z,34.97
2023-01-22T17:59:06.298Z,36.35
2023-01-22T18:01:34.922Z,37.53
2023-01-22T18:04:04.808Z,37.90
2023-01-22T18:06:31.774Z,37.78
2023-01-22T18:08:58.436Z,36.85
2023-01-22T18:11:28.108Z,37.67
2023-01-22T18:13:59.766Z,36.38
2023-01-22T18:16:29.567Z,38.15
2023-01-22T18:18:58.184Z,37.92
2023-01-22T18:21:24.928Z,37.45
2023-01-22T18:23:51.866Z,38.90
2023-01-22T18:26:22.643Z,37.47
2023-01-22T18:28:56.516Z,37.83
2023-01-22T18:31:27.503Z,35.35
2023-01-22T18:33:56.413Z,37.35
2023-01-22T18:36:28.172Z,37.22
2023-01-22T18:38:58.153Z,35.42
2023-01-22T18:41:26.072Z,39.20
2023-01-22T18:43:57.581Z,38.83
2023-01-22T18:46:26.152Z,37.72
2023-01-22T18:48:55.071Z,39.78
2023-01-22T18:51:22.385Z,39.72
2023-01-22T18:53:49.226Z,39.38
2023-01-22T18:56:16.034Z,40.55
2023-01-22T18:58:44.604Z,42.47
2023-01-22T19:01:17.151Z,36.17
2023-01-22T19:03:47.380Z,38.30
2023-01-22T19:06:16.939Z,37.08
2023-01-22T19:08:46.326Z,39.38
2023-01-22T19:11:14.336Z,38.28
2023-01-22T19:13:42.230Z,37.90
2023-01-22T19:16:10.941Z,38.67
2023-01-22T19:18:40.047Z,37.10
2023-01-22T19:21:11.327Z,34.17
2023-01-22T19:23:38.125Z,38.15
2023-01-22T19:26:13.467Z,36.90
2023-01-22T19:28:39.918Z,40.28
2023-01-22T19:31:18.973Z,38.40
2023-01-22T19:33:47.015Z,37.33
2023-01-22T19:36:14.108Z,38.63
2023-01-22T19:38:40.566Z,42.22
2023-01-22T19:41:07.387Z,45.13
2023-01-22T19:43:34.468Z,41.35
2023-01-22T19:46:10.186Z,45.08
2023-01-22T19:48:37.713Z,44.75
2023-01-22T19:51:11.346Z,43.85
2023-01-22T19:53:38.549Z,44.60
2023-01-22T19:56:13.914Z,41.83
2023-01-22T19:58:40.619Z,39.78
2023-01-22T20:01:11.229Z,42.10
2023-01-22T20:03:37.653Z,40.97
2023-01-22T20:06:05.982Z,42.97
2023-01-22T20:08:33.281Z,41.75
2023-01-22T20:11:01.030Z,44.97
2023-01-22T20:13:27.834Z,43.08
2023-01-22T20:15:54.244Z,41.53
2023-01-22T20:18:20.857Z,41.60
2023-01-22T20:20:54.424Z,44.22
2023-01-22T20:23:22.547Z,41.70
2023-01-22T20:25:50.094Z,50.28
2023-01-22T20:28:18.175Z,44.50
2023-01-22T20:30:45.786Z,43.38
2023-01-22T20:33:12.159Z,45.33
2023-01-22T20:35:42.449Z,43.95
2023-01-22T20:38:09.048Z,44.88
2023-01-22T20:40:39.049Z,41.95
2023-01-22T20:43:05.924Z,43.28
2023-01-22T20:45:32.333Z,43.05
2023-01-22T20:47:58.708Z,42.72
2023-01-22T20:50:25.042Z,43.00
2023-01-22T20:52:53.591Z,43.92
2023-01-22T20:55:20.959Z,42.15
2023-01-22T20:57:47.499Z,45.58
2023-01-22T21:00:14.396Z,46.63
2023-01-22T21:02:40.835Z,42.88
2023-01-22T21:05:08.190Z,43.10
2023-01-22T21:07:34.801Z,43.92
2023-01-22T21:10:01.203Z,46.55
2023-01-22T21:12:27.624Z,44.95
2023-01-22T21:14:55.709Z,48.92
2023-01-22T21:17:22.170Z,46.00
2023-01-22T21:19:48.625Z,48.85
2023-01-22T21:22:14.992Z,49.95
2023-01-22T21:24:41.408Z,46.78
2023-01-22T21:27:07.823Z,46.80
2023-01-22T21:29:34.264Z,48.20
2023-01-22T21:32:00.809Z,53.42
2023-01-22T21:34:28.202Z,50.70
2023-01-22T21:36:55.176Z,51.25
2023-01-22T21:39:24.565Z,50.58
2023-01-22T21:41:51.593Z,49.22
2023-01-22T21:44:38.463Z,55.63
2023-01-22T21:47:05.137Z,51.03
2023-01-22T21:49:32.908Z,56.53
2023-01-22T21:52:02.248Z,50.83
2023-01-22T21:54:41.083Z,50.35
2023-01-22T21:57:11.090Z,49.20
2023-01-22T21:59:37.455Z,51.63
2023-01-22T22:02:05.422Z,57.30
2023-01-22T22:04:32.009Z,54.72
2023-01-22T22:06:58.485Z,58.22
2023-01-22T22:09:27.672Z,53.80
2023-01-22T22:12:02.659Z,52.40
2023-01-22T22:14:29.703Z,59.58
2023-01-22T22:16:56.146Z,56.75
2023-01-22T22:19:23.565Z,53.53
2023-01-22T22:21:51.005Z,56.15
2023-01-22T22:24:18.336Z,52.63
2023-01-22T22:26:44.753Z,62.10
2023-01-22T22:29:11.073Z,58.60
2023-01-22T22:31:37.692Z,59.47
2023-01-22T22:34:04.825Z,66.70
2023-01-22T22:36:32.169Z,66.55
2023-01-22T22:39:00.047Z,67.78
2023-01-22T22:41:30.268Z,65.00
2023-01-22T22:43:57.083Z,65.10
2023-01-22T22:46:29.456Z,70.57
2023-01-22T22:48:57.618Z,70.38
2023-01-22T22:51:30.531Z,66.57
2023-01-22T22:53:59.629Z,66.20
2023-01-22T22:56:27.209Z,73.10
2023-01-22T22:58:54.428Z,74.60
2023-01-22T23:01:23.193Z,78.55
2023-01-22T23:03:50.351Z,76.95
2023-01-22T23:06:19.304Z,71.75
2023-01-22T23:08:52.098Z,79.78
2023-01-22T23:11:20.562Z,79.05
2023-01-22T23:13:49.369Z,79.82
2023-01-22T23:16:18.859Z,79.97
2023-01-22T23:18:47.003Z,80.70
2023-01-22T23:21:16.248Z,91.50
2023-01-22T23:23:43.549Z,75.05
2023-01-22T23:26:14.458Z,78.07
2023-01-22T23:28:40.878Z,79.30
2023-01-22T23:31:13.567Z,77.03
2023-01-22T23:33:40.901Z,79.28
2023-01-22T23:36:13.899Z,84.32
2023-01-22T23:38:40.789Z,80.50
2023-01-22T23:41:08.950Z,84.32
2023-01-22T23:43:35.984Z,75.57
2023-01-22T23:46:06.766Z,88.22
2023-01-22T23:48:33.122Z,92.97
2023-01-22T23:51:00.595Z,81.75
2023-01-22T23:53:27.383Z,74.82
2023-01-22T23:56:01.028Z,87.20
2023-01-22T23:58:28.337Z,104.57
